.
WxDataArchive / Data Records for 2014-05-05
2014-05-04 May 2014 2014-05-06

Data Records for Monday, 05 May 2014

Time	Temp	Chill	HIndex	Humid	Dewpt	 Wind 	HiWind	WindDir	Rain 	Barom
-----	----	-----	------	-----	-----	------	------	-------	-----	-----
00:00	43.3	43.3	43.3	56	28.7	0	0	---	0.00	30.060 
00:05	43.6	43.6	43.6	55	28.5	0	0	---	0.00	30.060 
00:10	43.8	43.8	43.8	54	28.3	0	0	---	0.00	30.060 
00:15	44.1	44.1	44.1	54	28.5	0	0	---	0.00	30.060 
00:20	44.3	44.3	44.3	54	28.7	0	0	---	0.00	30.060 
00:25	44.5	44.5	44.5	53	28.4	0	0	---	0.00	30.060 
00:30	44.5	44.5	44.5	53	28.4	0	0	---	0.00	30.054 
00:35	44.6	44.6	44.6	53	28.5	0	0	---	0.00	30.054 
00:40	44.8	44.8	44.8	53	28.7	0	0	---	0.00	30.054 
00:45	45.1	45.1	45.1	52	28.5	0	1	315	0.00	30.049 
00:50	45.2	45.2	45.2	52	28.6	0	0	---	0.00	30.049 
00:55	45.4	45.4	45.4	52	28.8	0	1	315	0.00	30.049 
01:00	45.4	45.4	45.4	51	28.3	0	0	---	0.00	30.049 
01:05	45.5	45.5	45.5	52	28.9	0	0	---	0.00	30.049 
01:10	45.4	45.4	45.4	52	28.8	0	0	---	0.00	30.049 
01:15	45.4	45.4	45.4	52	28.8	0	0	---	0.00	30.054 
01:20	45.2	45.2	45.2	53	29.1	0	1	315	0.00	30.054 
01:25	45.1	45.1	45.1	54	29.5	0	0	---	0.00	30.054 
01:30	44.9	44.9	44.9	54	29.3	0	0	---	0.00	30.050 
01:35	44.8	44.8	44.8	54	29.2	0	0	---	0.00	30.050 
01:40	44.8	44.8	44.8	54	29.2	0	0	---	0.00	30.050 
01:45	44.8	44.8	44.8	54	29.2	0	0	---	0.00	30.046 
01:50	44.8	44.8	44.8	55	29.6	0	0	---	0.00	30.046 
01:55	44.6	44.6	44.6	56	29.9	0	0	---	0.00	30.046 
02:00	44.6	44.6	44.6	56	29.9	0	0	---	0.00	30.042 
02:05	44.6	44.6	44.6	56	29.9	0	0	---	0.00	30.042 
02:10	44.6	44.6	44.6	58	30.7	0	1	315	0.00	30.042 
02:15	44.8	44.8	44.8	57	30.5	0	0	---	0.00	30.028 
02:20	44.8	44.8	44.8	57	30.5	0	0	---	0.00	30.028 
02:25	45.1	45.1	45.1	56	30.4	0	1	315	0.00	30.028 
02:30	45.4	45.4	45.4	55	30.2	0	1	315	0.00	30.023 
02:35	45.7	45.7	45.7	54	30.0	1	3	315	0.00	30.023 
02:40	45.8	45.8	45.8	54	30.1	0	3	68	0.00	30.023 
02:45	45.8	45.8	45.8	55	30.6	0	2	68	0.00	30.010 
02:50	45.7	45.7	45.7	55	30.5	0	2	68	0.00	30.010 
02:55	45.5	45.5	45.5	56	30.7	0	2	68	0.00	30.010 
03:00	45.4	45.4	45.4	56	30.6	0	1	68	0.00	30.008 
03:05	45.2	45.2	45.2	56	30.4	0	1	68	0.00	30.008 
03:10	45.1	45.1	45.1	56	30.4	0	0	---	0.00	30.008 
03:15	45.1	45.1	45.1	56	30.4	0	0	---	0.00	30.023 
03:20	45.1	45.1	45.1	57	30.8	0	1	68	0.00	30.023 
03:25	45.1	45.1	45.1	57	30.8	0	3	68	0.00	30.023 
03:30	45.2	45.2	45.2	57	30.9	0	3	68	0.00	30.007 
03:35	45.2	45.2	45.2	57	30.9	0	2	68	0.00	30.007 
03:40	45.2	45.2	45.2	56	30.4	1	4	68	0.00	30.007 
03:45	45.2	45.2	45.2	57	30.9	1	4	90	0.00	29.997 
03:50	45.1	45.1	45.1	56	30.4	1	6	90	0.00	29.997 
03:55	45.1	45.1	45.1	57	30.8	1	2	90	0.00	29.997 
04:00	44.9	44.9	44.9	57	30.6	1	4	90	0.00	29.990 
04:05	44.8	44.8	44.8	58	30.9	1	4	90	0.00	29.990 
04:10	44.6	44.6	44.6	58	30.7	1	5	90	0.00	29.990 
04:15	44.5	44.5	44.5	58	30.7	0	2	90	0.00	30.003 
04:20	44.3	44.3	44.3	58	30.5	0	3	90	0.00	30.003 
04:25	44.2	44.2	44.2	59	30.8	0	2	90	0.00	30.003 
04:30	44.1	44.1	44.1	59	30.7	0	2	90	0.00	30.007 
04:35	44.1	44.1	44.1	60	31.1	0	2	90	0.00	30.007 
04:40	43.9	43.9	43.9	60	30.9	0	2	90	0.00	30.007 
04:45	43.9	43.9	43.9	61	31.3	0	2	90	0.00	30.010 
04:50	43.8	43.8	43.8	61	31.2	0	1	90	0.00	30.010 
04:55	43.8	43.8	43.8	61	31.2	0	1	90	0.00	30.010 
05:00	43.8	43.8	43.8	61	31.2	0	2	90	0.00	30.009 
05:05	43.8	43.8	43.8	61	31.2	0	1	90	0.00	30.009 
05:10	43.8	43.8	43.8	62	31.6	0	0	---	0.00	30.009 
05:15	43.8	43.8	43.8	62	31.6	0	0	---	0.00	30.018 
05:20	43.8	43.8	43.8	63	32.0	0	0	---	0.00	30.018 
05:25	43.8	43.8	43.8	64	32.4	0	1	90	0.00	30.018 
05:30	43.8	43.8	43.8	63	32.0	0	0	---	0.00	30.021 
05:35	43.8	43.8	43.8	64	32.4	0	1	90	0.00	30.021 
05:40	43.8	43.8	43.8	64	32.4	0	0	---	0.00	30.021 
05:45	43.8	43.8	43.8	64	32.4	0	0	---	0.00	30.038 
05:50	43.8	43.8	43.8	64	32.4	0	0	---	0.00	30.038 
05:55	43.8	43.8	43.8	65	32.8	0	0	---	0.00	30.038 
06:00	44.1	44.1	44.1	65	33.1	0	2	90	0.00	30.027 
06:05	44.2	44.2	44.2	64	32.8	0	2	90	0.00	30.027 
06:10	44.2	44.2	44.2	64	32.8	0	2	90	0.00	30.027 
06:15	44.3	44.3	44.3	65	33.3	0	2	90	0.00	30.024 
06:20	44.3	44.3	44.3	65	33.3	1	3	90	0.00	30.024 
06:25	44.3	44.3	44.3	65	33.3	1	3	90	0.00	30.024 
06:30	44.3	44.3	44.3	65	33.3	1	4	90	0.00	30.010 
06:35	44.2	44.2	44.2	65	33.2	2	4	90	0.00	30.010 
06:40	44.2	44.2	44.2	66	33.6	0	2	90	0.00	30.010 
06:45	44.2	44.2	44.2	67	33.9	1	4	90	0.00	30.010 
06:50	44.3	44.3	44.3	66	33.7	0	3	90	0.00	30.010 
06:55	44.3	44.3	44.3	66	33.7	1	5	90	0.00	30.010 
07:00	44.5	44.5	44.5	66	33.9	2	4	90	0.00	29.997 
07:05	44.6	44.6	44.6	65	33.6	2	4	90	0.00	29.997 
07:10	44.6	44.6	44.6	65	33.6	2	4	90	0.00	29.997 
07:15	44.6	44.6	44.6	65	33.6	1	3	90	0.00	29.992 
07:20	44.6	44.6	44.6	66	34.0	1	4	90	0.00	29.992 
07:25	44.8	44.8	44.8	65	33.8	1	3	90	0.00	29.992 
07:30	44.8	44.8	44.8	65	33.8	1	3	90	0.00	29.992 
07:35	44.9	44.9	44.9	65	33.9	1	5	90	0.00	29.992 
07:40	45.1	45.1	45.1	64	33.7	2	5	90	0.00	29.992 
07:45	45.2	45.2	45.2	64	33.8	2	5	112	0.00	29.984 
07:50	45.5	45.5	45.5	63	33.6	2	6	90	0.00	29.984 
07:55	45.7	45.7	45.7	63	33.8	3	5	90	0.00	29.984 
08:00	45.7	45.7	45.7	63	33.8	2	5	90	0.00	29.974 
08:05	45.8	45.8	45.8	63	33.9	3	6	90	0.00	29.974 
08:10	46.0	46.0	46.0	62	33.7	3	6	112	0.00	29.974 
08:15	46.1	46.1	46.1	62	33.8	3	6	112	0.00	29.979 
08:20	46.4	46.4	46.4	62	34.1	2	4	112	0.00	29.979 
08:25	46.5	46.5	46.5	60	33.4	3	9	112	0.00	29.979 
08:30	46.8	46.8	46.8	60	33.7	2	6	112	0.00	29.986 
08:35	47.0	47.0	47.0	60	33.8	1	3	112	0.00	29.986 
08:40	47.1	47.1	47.1	59	33.5	1	3	112	0.00	29.986 
08:45	47.3	47.3	47.3	59	33.7	1	3	112	0.00	30.005 
08:50	47.3	47.3	47.3	59	33.7	1	5	112	0.00	30.005 
08:55	47.4	47.4	47.4	58	33.4	1	3	112	0.00	30.005 
09:00	47.4	47.4	47.4	58	33.4	1	4	112	0.00	30.008 
09:05	47.4	47.4	47.4	58	33.4	2	4	112	0.00	30.008 
09:10	47.6	47.6	47.6	57	33.1	2	4	112	0.00	30.008 
09:15	47.6	47.6	47.6	58	33.6	1	3	112	0.00	30.007 
09:20	47.7	47.7	47.7	58	33.7	1	5	68	0.00	30.007 
09:25	47.7	47.7	47.7	58	33.7	1	3	68	0.00	30.007 
09:30	47.9	47.9	47.9	60	34.7	0	2	68	0.00	30.026 
09:35	48.0	48.0	48.0	58	33.9	1	4	90	0.00	30.026 
09:40	48.2	48.2	48.2	58	34.1	2	6	90	0.00	30.026 
09:45	48.3	48.3	48.3	57	33.8	2	6	68	0.00	30.009 
09:50	48.5	48.5	48.5	57	34.0	1	6	90	0.00	30.009 
09:55	48.5	47.1	48.5	57	34.0	4	9	90	0.00	30.009 
10:00	48.5	48.5	48.5	58	34.4	3	6	90	0.00	29.992 
10:05	48.5	48.5	48.5	56	33.5	3	6	112	0.00	29.992 
10:10	48.6	48.6	48.6	57	34.1	1	5	112	0.00	29.992 
10:15	48.6	48.6	48.6	57	34.1	1	3	112	0.00	30.014 
10:20	48.6	48.6	48.6	56	33.6	2	5	112	0.00	30.014 
10:25	48.6	48.6	48.6	55	33.2	3	7	112	0.00	30.014 
10:30	48.6	48.6	48.6	56	33.6	2	4	90	0.00	30.010 
10:35	48.6	48.6	48.6	56	33.6	3	7	90	0.00	30.010 
10:40	48.8	48.8	48.8	56	33.8	1	5	90	0.00	30.010 
10:45	49.4	49.4	49.4	59	35.7	2	7	90	0.00	30.010 
10:50	50.1	50.1	50.1	56	35.0	3	9	90	0.00	30.010 
10:55	50.4	50.4	50.4	54	34.4	4	8	90	0.00	30.010 
11:00	50.4	50.4	50.4	53	33.9	3	8	90	0.00	30.010 
11:05	50.5	50.5	50.5	54	34.5	2	4	90	0.00	30.010 
11:10	50.7	50.7	50.7	52	33.7	4	10	112	0.00	30.010 
11:15	51.0	51.0	51.0	50	33.0	3	9	112	0.00	29.999 
11:20	51.6	51.6	51.6	50	33.6	5	11	112	0.00	29.999 
11:25	52.5	52.5	52.5	47	32.9	4	10	90	0.00	29.999 
11:30	52.8	52.8	52.8	48	33.7	4	11	90	0.00	30.005 
11:35	53.1	53.1	53.1	44	31.8	4	10	112	0.00	30.005 
11:40	52.9	52.9	52.9	46	32.7	5	9	90	0.00	30.005 
11:45	52.8	52.8	52.8	45	32.1	5	11	90	0.00	30.004 
11:50	52.9	52.9	52.9	48	33.7	5	12	90	0.00	30.004 
11:55	53.1	53.1	53.1	44	31.8	5	13	90	0.00	30.004 
12:00	52.8	52.8	52.8	44	31.5	6	10	90	0.00	30.000 
12:05	52.9	52.9	52.9	45	32.1	2	7	112	0.00	30.000 
12:10	52.9	52.9	52.9	44	31.6	5	10	90	0.00	30.000 
12:15	52.6	52.6	52.6	43	30.7	5	9	90	0.00	30.003 
12:20	52.5	52.5	52.5	45	31.8	3	6	90	0.00	30.003 
12:25	52.5	52.5	52.5	45	31.8	3	6	112	0.00	30.003 
12:30	52.8	52.8	52.8	44	31.5	3	9	112	0.00	29.998 
12:35	53.3	53.3	53.3	47	33.6	3	7	90	0.00	29.998 
12:40	53.8	53.8	53.8	45	33.0	4	11	90	0.00	29.998 
12:45	53.8	53.8	53.8	43	31.8	5	18	112	0.00	29.993 
12:50	53.5	53.5	53.5	43	31.6	3	7	112	0.00	29.993 
12:55	53.2	53.2	53.2	45	32.4	4	9	90	0.00	29.993 
13:00	53.3	53.3	53.3	44	31.9	4	9	90	0.00	29.991 
13:05	53.5	53.5	53.5	46	33.2	5	12	90	0.00	29.991 
13:10	54.1	54.1	54.1	46	33.8	5	10	112	0.00	29.991 
13:15	54.7	54.7	54.7	44	33.2	5	12	90	0.00	29.976 
13:20	55.0	55.0	55.0	43	32.9	6	12	112	0.00	29.976 
13:25	55.1	55.1	55.1	42	32.4	4	13	90	0.00	29.976 
13:30	55.3	55.3	55.3	44	33.8	4	9	90	0.00	29.972 
13:35	55.4	55.4	55.4	47	35.5	5	17	112	0.00	29.972 
13:40	55.9	55.9	55.9	42	33.1	6	10	112	0.00	29.972 
13:45	56.2	56.2	56.2	41	32.8	4	11	112	0.00	29.961 
13:50	56.3	56.3	56.3	42	33.5	4	10	112	0.00	29.961 
13:55	56.3	56.3	56.3	43	34.1	4	10	112	0.00	29.961 
14:00	56.6	56.6	56.6	42	33.8	4	9	90	0.00	29.955 
14:05	56.9	56.9	56.9	45	35.8	3	7	112	0.00	29.955 
14:10	57.3	57.3	57.3	43	35.0	5	12	112	0.00	29.955 
14:15	57.2	57.2	57.2	45	36.1	4	10	90	0.00	29.946 
14:20	57.0	57.0	57.0	40	32.9	6	11	90	0.00	29.946 
14:25	56.7	56.7	56.7	42	33.9	6	13	112	0.00	29.946 
14:30	56.5	56.5	56.5	44	34.9	5	14	90	0.00	29.950 
14:35	56.9	56.9	56.9	45	35.8	5	12	112	0.00	29.950 
14:40	57.2	57.2	57.2	45	36.1	5	11	112	0.00	29.950 
14:45	57.3	57.3	57.3	44	35.6	4	10	112	0.00	29.947 
14:50	57.3	57.3	57.3	45	36.1	5	13	90	0.00	29.947 
14:55	57.2	57.2	57.2	43	34.9	5	12	90	0.00	29.947 
15:00	57.2	57.2	57.2	44	35.5	5	14	112	0.00	29.944 
15:05	57.5	57.5	57.5	43	35.2	4	9	90	0.00	29.944 
15:10	57.8	57.8	57.8	44	36.0	4	10	112	0.00	29.944 
15:15	58.0	58.0	58.0	42	35.0	5	10	90	0.00	29.940 
15:20	58.1	58.1	58.1	43	35.7	4	9	90	0.00	29.940 
15:25	58.0	58.0	58.0	41	34.4	6	14	112	0.00	29.940 
15:30	57.8	57.8	57.8	41	34.3	5	14	90	0.00	29.935 
15:35	57.6	57.6	57.6	41	34.1	6	14	90	0.00	29.935 
15:40	58.1	58.1	58.1	43	35.7	5	9	90	0.00	29.935 
15:45	58.1	58.1	58.1	39	33.3	5	10	90	0.00	29.933 
15:50	57.6	57.6	57.6	40	33.5	6	13	90	0.00	29.933 
15:55	57.6	57.6	57.6	40	33.5	5	11	112	0.00	29.933 
16:00	57.5	57.5	57.5	39	32.7	6	10	112	0.00	29.929 
16:05	57.3	57.3	57.3	39	32.6	5	12	90	0.00	29.929 
16:10	57.5	57.5	57.5	38	32.1	4	10	112	0.00	29.929 
16:15	57.8	57.8	57.8	42	34.9	3	16	112	0.00	29.925 
16:20	57.8	57.8	57.8	40	33.6	5	11	90	0.00	29.925 
16:25	57.8	57.8	57.8	42	34.9	3	9	112	0.00	29.925 
16:30	57.6	57.6	57.6	40	33.5	5	11	90	0.00	29.924 
16:35	57.6	57.6	57.6	42	34.7	4	9	90	0.00	29.924 
16:40	57.2	57.2	57.2	43	34.9	6	13	112	0.00	29.924 
16:45	57.2	57.2	57.2	43	34.9	5	11	112	0.00	29.924 
16:50	57.5	57.5	57.5	44	35.8	3	9	90	0.00	29.924 
16:55	57.8	57.8	57.8	43	35.5	3	9	90	0.00	29.924 
17:00	57.5	57.5	57.5	42	34.6	5	12	112	0.00	29.919 
17:05	57.3	57.3	57.3	42	34.4	4	10	90	0.00	29.919 
17:10	57.3	57.3	57.3	42	34.4	4	7	90	0.00	29.919 
17:15	57.2	57.2	57.2	42	34.3	4	7	112	0.00	29.922 
17:20	57.2	57.2	57.2	42	34.3	3	8	112	0.00	29.922 
17:25	57.5	57.5	57.5	41	34.0	4	11	90	0.00	29.922 
17:30	57.5	57.5	57.5	42	34.6	4	10	90	0.00	29.914 
17:35	57.5	57.5	57.5	39	32.7	3	10	90	0.00	29.914 
17:40	57.2	57.2	57.2	39	32.5	4	9	112	0.00	29.914 
17:45	57.2	57.2	57.2	39	32.5	4	9	90	0.00	29.913 
17:50	57.3	57.3	57.3	39	32.6	4	10	90	0.00	29.913 
17:55	57.3	57.3	57.3	39	32.6	4	9	112	0.00	29.913 
18:00	57.3	57.3	57.3	39	32.6	4	9	112	0.00	29.910 
18:05	57.5	57.5	57.5	39	32.7	3	6	112	0.00	29.910 
18:10	57.5	57.5	57.5	38	32.1	3	9	112	0.00	29.910 
18:15	57.3	57.3	57.3	39	32.6	4	9	90	0.00	29.909 
18:20	57.2	57.2	57.2	41	33.7	3	7	90	0.00	29.909 
18:25	57.3	57.3	57.3	39	32.6	3	6	112	0.00	29.909 
18:30	57.5	57.5	57.5	39	32.7	3	7	90	0.00	29.911 
18:35	57.3	57.3	57.3	38	31.9	4	7	90	0.00	29.911 
18:40	57.0	57.0	57.0	38	31.6	4	9	112	0.00	29.911 
18:45	57.0	57.0	57.0	39	32.3	3	7	90	0.00	29.911 
18:50	57.2	57.2	57.2	40	33.1	3	7	90	0.00	29.911 
18:55	57.3	57.3	57.3	40	33.2	3	8	90	0.00	29.911 
19:00	57.3	57.3	57.3	39	32.6	2	6	90	0.00	29.917 
19:05	57.3	57.3	57.3	38	31.9	2	5	135	0.00	29.917 
19:10	57.2	57.2	57.2	37	31.2	3	6	112	0.00	29.917 
19:15	57.0	57.0	57.0	38	31.6	3	7	112	0.00	29.927 
19:20	56.7	56.7	56.7	37	30.7	2	6	112	0.00	29.927 
19:25	56.7	56.7	56.7	36	30.0	3	7	90	0.00	29.927 
19:30	56.6	56.6	56.6	37	30.6	3	7	90	0.00	29.920 
19:35	56.6	56.6	56.6	38	31.3	2	6	112	0.00	29.920 
19:40	56.5	56.5	56.5	38	31.2	2	4	112	0.00	29.920 
19:45	56.3	56.3	56.3	39	31.7	2	6	112	0.00	29.924 
19:50	56.3	56.3	56.3	39	31.7	2	5	90	0.00	29.924 
19:55	56.2	56.2	56.2	40	32.2	2	5	90	0.00	29.924 
20:00	56.0	56.0	56.0	41	32.6	2	4	90	0.00	29.920 
20:05	55.9	55.9	55.9	41	32.5	2	6	90	0.00	29.920 
20:10	55.7	55.7	55.7	41	32.4	1	4	90	0.00	29.920 
20:15	55.4	55.4	55.4	41	32.1	3	5	112	0.00	29.923 
20:20	55.1	55.1	55.1	41	31.8	2	5	90	0.00	29.923 
20:25	54.8	54.8	54.8	42	32.2	1	3	90	0.00	29.923 
20:30	54.7	54.7	54.7	42	32.1	1	3	90	0.00	29.926 
20:35	54.4	54.4	54.4	43	32.4	0	2	90	0.00	29.926 
20:40	53.9	53.9	53.9	45	33.1	0	2	90	0.00	29.926 
20:45	53.6	53.6	53.6	45	32.8	0	3	90	0.00	29.929 
20:50	53.3	53.3	53.3	46	33.1	0	1	90	0.00	29.929 
20:55	52.9	52.9	52.9	46	32.7	0	1	90	0.00	29.929 
21:00	52.8	52.8	52.8	47	33.1	0	2	90	0.00	29.928 
21:05	52.5	52.5	52.5	49	33.9	0	2	90	0.00	29.928 
21:10	52.2	52.2	52.2	52	35.1	0	1	90	0.00	29.928 
21:15	52.0	52.0	52.0	54	35.9	0	1	90	0.00	29.928 
21:20	51.7	51.7	51.7	55	36.1	0	2	90	0.00	29.928 
21:25	51.6	51.6	51.6	56	36.4	0	4	90	0.00	29.928 
21:30	51.6	51.6	51.6	57	36.9	0	3	90	0.00	29.928 
21:35	51.4	51.4	51.4	57	36.7	1	3	90	0.00	29.928 
21:40	51.3	51.3	51.3	58	37.0	0	4	112	0.00	29.928 
21:45	51.1	51.1	51.1	58	36.8	0	3	112	0.00	29.929 
21:50	51.0	51.0	51.0	58	36.7	1	4	112	0.00	29.929 
21:55	50.8	50.8	50.8	58	36.6	0	2	68	0.00	29.929 
22:00	50.7	50.7	50.7	59	36.9	1	3	68	0.00	29.929 
22:05	50.5	50.5	50.5	60	37.1	1	3	90	0.00	29.929 
22:10	50.2	50.2	50.2	60	36.9	1	5	112	0.00	29.929 
22:15	50.1	50.1	50.1	60	36.8	1	2	112	0.00	29.941 
22:20	49.8	49.8	49.8	60	36.5	1	6	112	0.00	29.941 
22:25	49.4	49.4	49.4	59	35.7	1	4	90	0.00	29.941 
22:30	49.1	49.1	49.1	59	35.4	1	6	90	0.00	29.951 
22:35	48.8	48.8	48.8	59	35.1	0	2	90	0.00	29.951 
22:40	48.5	48.5	48.5	59	34.8	0	2	90	0.00	29.951 
22:45	48.2	48.2	48.2	60	35.0	1	3	90	0.00	29.957 
22:50	48.0	48.0	48.0	60	34.8	0	3	90	0.00	29.957 
22:55	47.7	47.7	47.7	60	34.5	0	3	90	0.00	29.957 
23:00	47.6	47.6	47.6	60	34.4	0	3	90	0.00	29.959 
23:05	47.3	47.3	47.3	61	34.5	0	2	90	0.00	29.959 
23:10	47.1	47.1	47.1	61	34.4	0	2	90	0.00	29.959 
23:15	47.0	47.0	47.0	62	34.7	0	3	90	0.00	29.957 
23:20	46.7	46.7	46.7	62	34.4	0	3	90	0.00	29.957 
23:25	46.5	46.5	46.5	62	34.2	0	1	90	0.00	29.957 
23:30	46.2	46.2	46.2	63	34.3	0	2	90	0.00	29.954 
23:35	46.1	46.1	46.1	63	34.2	0	1	90	0.00	29.954 
23:40	46.0	46.0	46.0	64	34.5	0	1	90	0.00	29.954 
23:45	45.7	45.7	45.7	64	34.2	0	1	90	0.00	29.958 
23:50	45.5	45.5	45.5	64	34.0	0	0	---	0.00	29.958 
23:55	45.4	45.4	45.4	64	33.9	0	1	90	0.00	29.958 

CoCoRaHS
IN-AL-39
A2 Web Hosting
Creative Commons License
GoDaddy
search engine by freefind advanced

loaded 2018-11-19 18:45:16 • last modified 2010-11-18 10:43:29
Privacy PolicyDisclaimer
• wx.awcolley.com is powered by PmWiki v.2002016 •
• all content (unless otherwise noted) © 2018 A W Colley